createdAt,value
2023-05-13T00:03:28.704Z,9.82
2023-05-13T00:08:30.722Z,9.79
2023-05-13T00:13:32.502Z,9.75
2023-05-13T00:18:34.322Z,9.72
2023-05-13T00:23:36.071Z,9.73
2023-05-13T00:28:37.698Z,9.76
2023-05-13T00:33:39.630Z,9.75
2023-05-13T00:38:43.867Z,9.75
2023-05-13T00:43:45.672Z,9.81
2023-05-13T00:48:47.688Z,9.82
2023-05-13T00:53:51.544Z,9.80
2023-05-13T00:58:53.253Z,9.80
2023-05-13T01:04:24.575Z,9.84
2023-05-13T01:09:40.854Z,9.97
2023-05-13T01:14:59.362Z,10.16
2023-05-13T01:20:04.545Z,10.33
2023-05-13T01:25:06.782Z,10.45
2023-05-13T01:30:10.764Z,10.49
2023-05-13T01:35:15.160Z,10.52
2023-05-13T01:40:31.929Z,10.52
2023-05-13T01:45:37.484Z,10.51
2023-05-13T01:50:39.454Z,10.46
2023-05-13T01:55:41.653Z,10.40
2023-05-13T02:00:44.433Z,10.32
2023-05-13T02:05:48.698Z,10.25
2023-05-13T02:10:57.857Z,10.21
2023-05-13T02:15:59.884Z,10.22
2023-05-13T02:21:01.712Z,10.24
2023-05-13T02:26:03.566Z,10.23
2023-05-13T02:31:05.384Z,10.21
2023-05-13T02:36:07.748Z,10.17
2023-05-13T02:41:09.872Z,10.10
2023-05-13T02:46:11.668Z,10.04
2023-05-13T02:51:13.542Z,9.97
2023-05-13T02:56:16.967Z,9.93
2023-05-13T03:01:18.890Z,9.88
2023-05-13T03:06:21.035Z,9.86
2023-05-13T03:11:22.821Z,9.90
2023-05-13T03:16:24.815Z,9.93
2023-05-13T03:21:27.001Z,9.91
2023-05-13T03:26:28.722Z,9.86
2023-05-13T03:31:32.087Z,9.82
2023-05-13T03:36:34.710Z,9.81
2023-05-13T03:41:36.877Z,9.84
2023-05-13T03:46:38.655Z,9.87
2023-05-13T03:51:40.772Z,9.89
2023-05-13T03:56:42.940Z,9.90
2023-05-13T04:01:44.696Z,9.92
2023-05-13T04:06:46.643Z,9.92
2023-05-13T04:11:48.277Z,9.95
2023-05-13T04:16:51.247Z,9.95
2023-05-13T04:21:52.951Z,9.97
2023-05-13T04:26:54.611Z,9.98
2023-05-13T04:31:56.746Z,10.01
2023-05-13T04:36:58.499Z,10.01
2023-05-13T04:42:00.348Z,10.04
2023-05-13T04:47:02.633Z,10.13
2023-05-13T04:52:05.107Z,10.18
2023-05-13T04:57:07.461Z,10.27
2023-05-13T05:02:09.521Z,10.38
2023-05-13T05:07:11.443Z,10.49
2023-05-13T05:12:13.818Z,10.59
2023-05-13T05:17:16.383Z,10.68
2023-05-13T05:22:18.513Z,10.76
2023-05-13T05:27:20.632Z,10.88
2023-05-13T05:32:23.385Z,11.16
2023-05-13T05:37:25.298Z,11.54
2023-05-13T05:42:27.180Z,11.95
2023-05-13T05:47:29.208Z,12.42
2023-05-13T05:52:31.615Z,12.76
2023-05-13T05:57:33.681Z,12.97
2023-05-13T06:02:36.231Z,13.17
2023-05-13T06:07:38.624Z,13.43
2023-05-13T06:12:41.809Z,13.72
2023-05-13T06:17:45.742Z,14.13
2023-05-13T06:22:48.283Z,14.44
2023-05-13T06:27:50.326Z,14.79
2023-05-13T06:33:01.753Z,14.87
2023-05-13T06:38:05.200Z,14.87
2023-05-13T06:43:07.728Z,14.87
2023-05-13T06:48:13.587Z,15.04
2023-05-13T06:53:15.579Z,15.31
2023-05-13T06:58:17.767Z,15.59
2023-05-13T07:03:19.491Z,15.91
2023-05-13T07:08:21.668Z,16.12
2023-05-13T07:13:23.379Z,16.21
2023-05-13T07:18:25.126Z,16.38
2023-05-13T07:23:27.004Z,16.51
2023-05-13T07:28:28.698Z,16.66
2023-05-13T07:33:30.495Z,16.70
2023-05-13T07:38:32.479Z,16.82
2023-05-13T07:43:35.052Z,16.98
2023-05-13T07:48:36.861Z,17.14
2023-05-13T07:53:38.822Z,17.34
2023-05-13T07:58:40.930Z,17.47
2023-05-13T08:03:42.729Z,17.63
2023-05-13T08:08:44.547Z,17.85
2023-05-13T08:13:46.428Z,17.95
2023-05-13T08:18:48.361Z,18.24
2023-05-13T08:24:04.123Z,18.49
2023-05-13T08:29:05.791Z,18.93
2023-05-13T08:34:07.602Z,19.33
2023-05-13T08:39:09.737Z,19.41
2023-05-13T08:44:13.537Z,19.27
2023-05-13T08:49:15.594Z,19.24
2023-05-13T08:54:17.794Z,19.08
2023-05-13T08:59:19.451Z,18.97
2023-05-13T09:04:21.436Z,19.07
2023-05-13T09:09:23.733Z,18.89
2023-05-13T09:14:32.620Z,18.47
2023-05-13T09:19:36.301Z,18.33
2023-05-13T09:24:38.083Z,18.42
2023-05-13T09:29:39.826Z,18.75
2023-05-13T09:34:47.910Z,19.06
2023-05-13T09:39:52.441Z,19.34
2023-05-13T09:44:55.167Z,20.04
2023-05-13T09:49:57.791Z,20.46
2023-05-13T09:55:00.052Z,20.22
2023-05-13T10:00:08.252Z,20.01
2023-05-13T10:05:13.403Z,19.91
2023-05-13T10:10:15.262Z,19.94
2023-05-13T10:15:17.548Z,19.79
2023-05-13T10:20:19.674Z,19.85
2023-05-13T10:25:22.692Z,20.17
2023-05-13T10:30:26.602Z,20.31
2023-05-13T10:35:42.794Z,20.07
2023-05-13T10:41:04.145Z,19.81
2023-05-13T10:46:13.130Z,19.81
2023-05-13T10:51:16.360Z,19.87
2023-05-13T10:56:26.059Z,20.49
2023-05-13T11:01:43.935Z,20.98
2023-05-13T11:06:48.409Z,21.12
2023-05-13T11:11:54.794Z,21.08
2023-05-13T11:17:02.528Z,20.94
2023-05-13T11:22:19.466Z,21.07
2023-05-13T11:27:21.578Z,20.79
2023-05-13T11:32:53.671Z,20.50
2023-05-13T11:37:58.369Z,20.61
2023-05-13T11:43:02.036Z,20.83
2023-05-13T11:48:22.142Z,20.68
2023-05-13T11:53:23.921Z,20.49
2023-05-13T11:58:25.826Z,20.13
2023-05-13T12:03:28.094Z,19.77
2023-05-13T12:08:30.176Z,19.71
2023-05-13T12:13:32.103Z,20.03
2023-05-13T12:18:34.594Z,19.93
2023-05-13T12:23:40.920Z,19.64
2023-05-13T12:28:42.806Z,19.56
2023-05-13T12:33:46.833Z,19.53
2023-05-13T12:39:05.241Z,20.06
2023-05-13T12:44:15.018Z,20.59
2023-05-13T12:49:16.693Z,20.73
2023-05-13T12:54:18.605Z,21.04
2023-05-13T12:59:20.242Z,21.21
2023-05-13T13:04:21.906Z,21.45
2023-05-13T13:09:23.694Z,21.62
2023-05-13T13:14:26.176Z,21.60
2023-05-13T13:19:28.157Z,21.39
2023-05-13T13:24:29.801Z,21.02
2023-05-13T13:29:31.461Z,20.67
2023-05-13T13:34:33.187Z,20.41
2023-05-13T13:39:35.026Z,20.08
2023-05-13T13:44:38.415Z,19.78
2023-05-13T13:49:40.413Z,19.58
2023-05-13T13:54:42.110Z,19.58
2023-05-13T13:59:43.783Z,19.61
2023-05-13T14:04:46.492Z,19.56
2023-05-13T14:09:49.835Z,19.60
2023-05-13T14:14:51.611Z,19.62
2023-05-13T14:19:55.539Z,19.62
2023-05-13T14:24:58.857Z,19.53
2023-05-13T14:30:00.664Z,19.33
2023-05-13T14:35:02.616Z,19.12
2023-05-13T14:40:05.025Z,19.04
2023-05-13T14:45:07.652Z,18.99
2023-05-13T14:50:09.927Z,19.06
2023-05-13T14:55:12.067Z,19.11
2023-05-13T15:00:14.632Z,19.06
2023-05-13T15:05:16.360Z,19.10
2023-05-13T15:10:18.210Z,19.15
2023-05-13T15:15:19.940Z,19.08
2023-05-13T15:20:22.262Z,19.06
2023-05-13T15:25:24.229Z,18.99
2023-05-13T15:30:25.934Z,18.96
2023-05-13T15:35:27.677Z,18.88
2023-05-13T15:40:29.537Z,18.93
2023-05-13T15:45:31.218Z,18.93
2023-05-13T15:50:33.803Z,18.80
2023-05-13T15:55:37.457Z,18.58
2023-05-13T16:00:39.112Z,18.33
2023-05-13T16:05:41.021Z,18.11
2023-05-13T16:10:42.969Z,17.94
2023-05-13T16:15:44.639Z,17.76
2023-05-13T16:20:46.422Z,17.61
2023-05-13T16:25:48.136Z,17.49
2023-05-13T16:30:49.773Z,17.38
2023-05-13T16:35:51.559Z,17.28
2023-05-13T16:40:53.237Z,17.21
2023-05-13T16:45:54.947Z,17.16
2023-05-13T16:50:56.929Z,17.10
2023-05-13T16:55:58.659Z,17.04
2023-05-13T17:01:00.981Z,17.00
2023-05-13T17:06:03.240Z,16.92
2023-05-13T17:11:05.113Z,16.83
2023-05-13T17:16:07.401Z,16.74
2023-05-13T17:21:09.610Z,16.63
2023-05-13T17:26:11.561Z,16.54
2023-05-13T17:31:13.284Z,16.42
2023-05-13T17:36:15.521Z,16.28
2023-05-13T17:41:17.281Z,16.14
2023-05-13T17:46:18.948Z,15.97
2023-05-13T17:51:20.809Z,15.77
2023-05-13T17:56:22.461Z,15.55
2023-05-13T18:01:24.188Z,15.32
2023-05-13T18:06:25.874Z,15.07
2023-05-13T18:11:27.507Z,14.81
2023-05-13T18:16:29.209Z,14.54
2023-05-13T18:21:31.680Z,14.26
2023-05-13T18:26:33.912Z,13.99
2023-05-13T18:31:35.942Z,13.73
2023-05-13T18:36:37.711Z,13.48
2023-05-13T18:41:39.354Z,13.24
2023-05-13T18:46:41.202Z,13.04
2023-05-13T18:51:42.894Z,12.77
2023-05-13T18:56:44.607Z,12.59
2023-05-13T19:01:46.532Z,12.37
2023-05-13T19:06:48.510Z,12.14
2023-05-13T19:11:50.209Z,11.89
2023-05-13T19:16:51.893Z,11.65
2023-05-13T19:21:53.792Z,11.41
2023-05-13T19:26:56.547Z,11.18
2023-05-13T19:31:58.256Z,10.95
2023-05-13T19:37:00.103Z,10.74
2023-05-13T19:42:01.733Z,10.56
2023-05-13T19:47:03.512Z,10.39
2023-05-13T19:52:06.533Z,10.21
2023-05-13T19:57:08.362Z,10.02
2023-05-13T20:02:10.302Z,9.85
2023-05-13T20:07:12.402Z,9.70
2023-05-13T20:12:14.071Z,9.57
2023-05-13T20:17:28.390Z,9.44
2023-05-13T20:22:30.125Z,9.31
2023-05-13T20:27:31.800Z,9.23
2023-05-13T20:32:33.894Z,9.20
2023-05-13T20:37:35.984Z,9.12
2023-05-13T20:42:37.674Z,9.01
2023-05-13T20:47:39.312Z,9.00
2023-05-13T20:52:41.466Z,9.01
2023-05-13T20:57:44.307Z,9.03
2023-05-13T21:02:46.573Z,9.07
2023-05-13T21:07:50.151Z,9.04
2023-05-13T21:12:53.648Z,8.99
2023-05-13T21:17:55.593Z,8.93
2023-05-13T21:22:57.329Z,8.85
2023-05-13T21:27:59.293Z,8.73
2023-05-13T21:33:01.218Z,8.58
2023-05-13T21:38:11.361Z,8.41
2023-05-13T21:43:14.741Z,8.34
2023-05-13T21:48:36.507Z,8.36
2023-05-13T21:53:43.385Z,8.39
2023-05-13T21:58:45.075Z,8.38
2023-05-13T22:03:46.703Z,8.31
2023-05-13T22:08:48.432Z,8.21
2023-05-13T22:13:54.047Z,8.09
2023-05-13T22:19:00.417Z,8.01
2023-05-13T22:24:05.096Z,7.98
2023-05-13T22:29:06.913Z,7.94
2023-05-13T22:34:08.610Z,7.89
2023-05-13T22:39:12.192Z,7.80
2023-05-13T22:44:14.203Z,7.73
2023-05-13T22:49:15.911Z,7.66
2023-05-13T22:54:17.747Z,7.60
2023-05-13T22:59:19.443Z,7.57
2023-05-13T23:04:21.270Z,7.57
2023-05-13T23:09:23.811Z,7.61
2023-05-13T23:14:30.275Z,7.66
2023-05-13T23:19:32.016Z,7.69
2023-05-13T23:24:33.735Z,7.69
2023-05-13T23:29:36.363Z,7.64
2023-05-13T23:34:39.513Z,7.58
2023-05-13T23:39:42.389Z,7.49
2023-05-13T23:44:44.128Z,7.40
2023-05-13T23:50:06.756Z,7.30
2023-05-13T23:55:08.464Z,7.19
